sensor_id;sensor_type;location;lat;lon;timestamp;temperature;humidity
55091;DHT22;40985;53.180;5.800;2023-03-31T00:00:56;9.10;99.90
55091;DHT22;40985;53.180;5.800;2023-03-31T00:03:22;9.20;99.90
55091;DHT22;40985;53.180;5.800;2023-03-31T00:05:54;9.20;99.90
55091;DHT22;40985;53.180;5.800;2023-03-31T00:08:20;9.20;99.90
55091;DHT22;40985;53.180;5.800;2023-03-31T00:10:46;9.20;99.90
55091;DHT22;40985;53.180;5.800;2023-03-31T00:13:13;9.20;99.90
55091;DHT22;40985;53.180;5.800;2023-03-31T00:15:38;9.20;99.90
55091;DHT22;40985;53.180;5.800;2023-03-31T00:18:04;9.20;99.90
55091;DHT22;40985;53.180;5.800;2023-03-31T00:20:31;9.30;99.90
55091;DHT22;40985;53.180;5.800;2023-03-31T00:22:58;9.30;99.90
55091;DHT22;40985;53.180;5.800;2023-03-31T00:25:26;9.20;99.90
55091;DHT22;40985;53.180;5.800;2023-03-31T00:27:52;9.30;99.90
55091;DHT22;40985;53.180;5.800;2023-03-31T00:30:18;9.20;99.90
55091;DHT22;40985;53.180;5.800;2023-03-31T00:32:44;9.20;99.90
55091;DHT22;40985;53.180;5.800;2023-03-31T00:35:10;9.20;99.90
55091;DHT22;40985;53.180;5.800;2023-03-31T00:37:39;9.10;99.90
55091;DHT22;40985;53.180;5.800;2023-03-31T00:40:08;9.20;99.90
55091;DHT22;40985;53.180;5.800;2023-03-31T00:42:41;9.10;99.90
55091;DHT22;40985;53.180;5.800;2023-03-31T00:47:40;9.00;99.90
55091;DHT22;40985;53.180;5.800;2023-03-31T00:50:15;8.90;99.90
55091;DHT22;40985;53.180;5.800;2023-03-31T00:52:43;8.80;99.90
55091;DHT22;40985;53.180;5.800;2023-03-31T00:55:16;8.70;99.90
55091;DHT22;40985;53.180;5.800;2023-03-31T00:57:45;8.70;99.90
55091;DHT22;40985;53.180;5.800;2023-03-31T01:00:14;8.60;99.90
55091;DHT22;40985;53.180;5.800;2023-03-31T01:02:42;8.60;99.90
55091;DHT22;40985;53.180;5.800;2023-03-31T01:05:23;8.60;99.90
55091;DHT22;40985;53.180;5.800;2023-03-31T01:07:51;8.40;99.90
55091;DHT22;40985;53.180;5.800;2023-03-31T01:10:19;8.40;99.90
55091;DHT22;40985;53.180;5.800;2023-03-31T01:12:49;8.30;99.90
55091;DHT22;40985;53.180;5.800;2023-03-31T01:15:16;8.30;99.90
55091;DHT22;40985;53.180;5.800;2023-03-31T01:17:43;8.30;99.90
55091;DHT22;40985;53.180;5.800;2023-03-31T01:20:33;8.20;99.90
55091;DHT22;40985;53.180;5.800;2023-03-31T01:34:56;8.00;99.90
55091;DHT22;40985;53.180;5.800;2023-03-31T01:37:46;8.00;99.90
55091;DHT22;40985;53.180;5.800;2023-03-31T01:43:16;7.90;99.90
55091;DHT22;40985;53.180;5.800;2023-03-31T01:46:00;8.10;99.90
55091;DHT22;40985;53.180;5.800;2023-03-31T01:51:39;8.10;99.90
55091;DHT22;40985;53.180;5.800;2023-03-31T01:54:22;8.20;99.90
55091;DHT22;40985;53.180;5.800;2023-03-31T01:56:59;8.20;99.90
55091;DHT22;40985;53.180;5.800;2023-03-31T01:59:31;8.30;99.90
55091;DHT22;40985;53.180;5.800;2023-03-31T02:02:15;8.50;99.90
55091;DHT22;40985;53.180;5.800;2023-03-31T02:04:46;8.50;99.90
55091;DHT22;40985;53.180;5.800;2023-03-31T02:07:21;8.50;99.90
55091;DHT22;40985;53.180;5.800;2023-03-31T02:09:52;8.60;99.90
55091;DHT22;40985;53.180;5.800;2023-03-31T02:12:21;8.70;99.90
55091;DHT22;40985;53.180;5.800;2023-03-31T02:14:51;8.70;99.90
55091;DHT22;40985;53.180;5.800;2023-03-31T02:17:21;8.70;99.90
55091;DHT22;40985;53.180;5.800;2023-03-31T02:19:57;8.70;99.90
55091;DHT22;40985;53.180;5.800;2023-03-31T02:22:25;8.70;99.90
55091;DHT22;40985;53.180;5.800;2023-03-31T02:24:52;8.70;99.90
55091;DHT22;40985;53.180;5.800;2023-03-31T02:27:27;8.70;99.90
55091;DHT22;40985;53.180;5.800;2023-03-31T02:29:55;8.70;99.90
55091;DHT22;40985;53.180;5.800;2023-03-31T02:34:54;8.70;99.90
55091;DHT22;40985;53.180;5.800;2023-03-31T02:37:20;8.60;99.90
55091;DHT22;40985;53.180;5.800;2023-03-31T02:39:49;8.60;99.90
55091;DHT22;40985;53.180;5.800;2023-03-31T02:42:16;8.70;99.90
55091;DHT22;40985;53.180;5.800;2023-03-31T02:44:42;8.60;99.90
55091;DHT22;40985;53.180;5.800;2023-03-31T02:47:11;8.60;99.90
55091;DHT22;40985;53.180;5.800;2023-03-31T02:49:40;8.60;99.90
55091;DHT22;40985;53.180;5.800;2023-03-31T03:06:10;8.80;99.90
55091;DHT22;40985;53.180;5.800;2023-03-31T03:16:47;8.80;99.90
55091;DHT22;40985;53.180;5.800;2023-03-31T03:19:19;8.70;99.90
55091;DHT22;40985;53.180;5.800;2023-03-31T03:21:45;8.70;99.90
55091;DHT22;40985;53.180;5.800;2023-03-31T03:24:16;8.80;99.90
55091;DHT22;40985;53.180;5.800;2023-03-31T03:26:43;8.80;99.90
55091;DHT22;40985;53.180;5.800;2023-03-31T03:29:12;8.80;99.90
55091;DHT22;40985;53.180;5.800;2023-03-31T03:31:40;8.80;99.90
55091;DHT22;40985;53.180;5.800;2023-03-31T03:34:06;8.80;99.90
55091;DHT22;40985;53.180;5.800;2023-03-31T03:36:32;8.80;99.90
55091;DHT22;40985;53.180;5.800;2023-03-31T03:38:58;8.80;99.90
55091;DHT22;40985;53.180;5.800;2023-03-31T03:41:24;8.80;99.90
55091;DHT22;40985;53.180;5.800;2023-03-31T03:43:52;8.70;99.90
55091;DHT22;40985;53.180;5.800;2023-03-31T03:46:18;8.70;99.90
55091;DHT22;40985;53.180;5.800;2023-03-31T03:48:44;8.70;99.90
55091;DHT22;40985;53.180;5.800;2023-03-31T03:51:11;8.70;99.90
55091;DHT22;40985;53.180;5.800;2023-03-31T03:53:38;8.70;99.90
55091;DHT22;40985;53.180;5.800;2023-03-31T03:56:03;8.70;99.90
55091;DHT22;40985;53.180;5.800;2023-03-31T03:58:29;8.60;99.90
55091;DHT22;40985;53.180;5.800;2023-03-31T04:00:55;8.70;99.90
55091;DHT22;40985;53.180;5.800;2023-03-31T04:03:24;8.70;99.90
55091;DHT22;40985;53.180;5.800;2023-03-31T04:05:50;8.70;99.90
55091;DHT22;40985;53.180;5.800;2023-03-31T04:08:17;8.70;99.90
55091;DHT22;40985;53.180;5.800;2023-03-31T04:10:47;8.80;99.90
55091;DHT22;40985;53.180;5.800;2023-03-31T04:13:18;8.80;99.90
55091;DHT22;40985;53.180;5.800;2023-03-31T04:15:44;8.70;99.90
55091;DHT22;40985;53.180;5.800;2023-03-31T04:18:11;8.70;99.90
55091;DHT22;40985;53.180;5.800;2023-03-31T04:20:44;8.70;99.90
55091;DHT22;40985;53.180;5.800;2023-03-31T04:23:10;8.80;99.90
55091;DHT22;40985;53.180;5.800;2023-03-31T04:25:40;8.70;99.90
55091;DHT22;40985;53.180;5.800;2023-03-31T04:28:10;8.90;99.90
55091;DHT22;40985;53.180;5.800;2023-03-31T04:30:39;8.80;99.90
55091;DHT22;40985;53.180;5.800;2023-03-31T04:33:05;8.90;99.90
55091;DHT22;40985;53.180;5.800;2023-03-31T04:35:31;8.90;99.90
55091;DHT22;40985;53.180;5.800;2023-03-31T04:38:22;8.80;99.90
55091;DHT22;40985;53.180;5.800;2023-03-31T04:40:50;8.80;99.90
55091;DHT22;40985;53.180;5.800;2023-03-31T04:43:16;8.80;99.90
55091;DHT22;40985;53.180;5.800;2023-03-31T04:45:42;8.90;99.90
55091;DHT22;40985;53.180;5.800;2023-03-31T04:48:09;8.80;99.90
55091;DHT22;40985;53.180;5.800;2023-03-31T04:50:37;8.80;99.90
55091;DHT22;40985;53.180;5.800;2023-03-31T04:53:03;8.90;99.90
55091;DHT22;40985;53.180;5.800;2023-03-31T04:55:29;8.80;99.90
55091;DHT22;40985;53.180;5.800;2023-03-31T04:57:55;8.90;99.90
55091;DHT22;40985;53.180;5.800;2023-03-31T05:00:21;8.80;99.90
55091;DHT22;40985;53.180;5.800;2023-03-31T05:02:47;8.80;99.90
55091;DHT22;40985;53.180;5.800;2023-03-31T05:05:14;8.90;99.90
55091;DHT22;40985;53.180;5.800;2023-03-31T05:07:40;8.80;99.90
55091;DHT22;40985;53.180;5.800;2023-03-31T05:10:06;8.90;99.90
55091;DHT22;40985;53.180;5.800;2023-03-31T05:12:36;8.90;99.90
55091;DHT22;40985;53.180;5.800;2023-03-31T05:15:03;8.90;99.90
55091;DHT22;40985;53.180;5.800;2023-03-31T05:17:34;8.80;99.90
55091;DHT22;40985;53.180;5.800;2023-03-31T05:20:01;8.90;99.90
55091;DHT22;40985;53.180;5.800;2023-03-31T05:22:33;8.80;99.90
55091;DHT22;40985;53.180;5.800;2023-03-31T05:24:59;8.90;99.90
55091;DHT22;40985;53.180;5.800;2023-03-31T05:27:25;8.80;99.90
55091;DHT22;40985;53.180;5.800;2023-03-31T05:29:52;8.80;99.90
55091;DHT22;40985;53.180;5.800;2023-03-31T05:32:17;8.90;99.90
55091;DHT22;40985;53.180;5.800;2023-03-31T05:34:43;8.80;99.90
55091;DHT22;40985;53.180;5.800;2023-03-31T05:37:09;8.80;99.90
55091;DHT22;40985;53.180;5.800;2023-03-31T05:39:44;8.80;99.90
55091;DHT22;40985;53.180;5.800;2023-03-31T05:42:09;9.00;99.90
55091;DHT22;40985;53.180;5.800;2023-03-31T05:44:35;8.90;99.90
55091;DHT22;40985;53.180;5.800;2023-03-31T05:47:01;8.90;99.90
55091;DHT22;40985;53.180;5.800;2023-03-31T05:49:27;8.90;99.90
55091;DHT22;40985;53.180;5.800;2023-03-31T05:51:52;8.90;99.90
55091;DHT22;40985;53.180;5.800;2023-03-31T05:54:20;8.80;99.90
55091;DHT22;40985;53.180;5.800;2023-03-31T05:56:45;9.00;99.90
55091;DHT22;40985;53.180;5.800;2023-03-31T05:59:11;9.00;99.90
55091;DHT22;40985;53.180;5.800;2023-03-31T06:01:37;9.00;99.90
55091;DHT22;40985;53.180;5.800;2023-03-31T06:04:02;9.00;99.90
55091;DHT22;40985;53.180;5.800;2023-03-31T06:06:28;8.90;99.90
55091;DHT22;40985;53.180;5.800;2023-03-31T06:08:54;9.10;99.90
55091;DHT22;40985;53.180;5.800;2023-03-31T06:11:21;9.10;99.90
55091;DHT22;40985;53.180;5.800;2023-03-31T06:13:47;8.90;99.90
55091;DHT22;40985;53.180;5.800;2023-03-31T06:16:15;9.10;99.90
55091;DHT22;40985;53.180;5.800;2023-03-31T06:18:42;9.10;99.90
55091;DHT22;40985;53.180;5.800;2023-03-31T06:21:14;9.10;99.90
55091;DHT22;40985;53.180;5.800;2023-03-31T06:23:44;9.10;99.90
55091;DHT22;40985;53.180;5.800;2023-03-31T06:26:12;9.20;99.90
55091;DHT22;40985;53.180;5.800;2023-03-31T06:28:41;9.20;99.90
55091;DHT22;40985;53.180;5.800;2023-03-31T06:31:11;9.10;99.90
55091;DHT22;40985;53.180;5.800;2023-03-31T06:33:38;9.20;99.90
55091;DHT22;40985;53.180;5.800;2023-03-31T06:36:07;9.10;99.90
55091;DHT22;40985;53.180;5.800;2023-03-31T06:38:33;9.20;99.90
55091;DHT22;40985;53.180;5.800;2023-03-31T06:41:03;9.30;99.90
55091;DHT22;40985;53.180;5.800;2023-03-31T06:43:29;9.20;99.90
55091;DHT22;40985;53.180;5.800;2023-03-31T06:46:09;9.20;99.90
55091;DHT22;40985;53.180;5.800;2023-03-31T06:48:41;9.30;99.90
55091;DHT22;40985;53.180;5.800;2023-03-31T06:51:08;9.20;99.90
55091;DHT22;40985;53.180;5.800;2023-03-31T06:53:35;9.30;99.90
55091;DHT22;40985;53.180;5.800;2023-03-31T06:56:03;9.30;99.90
55091;DHT22;40985;53.180;5.800;2023-03-31T06:58:30;9.40;99.90
55091;DHT22;40985;53.180;5.800;2023-03-31T07:00:57;9.20;99.90
55091;DHT22;40985;53.180;5.800;2023-03-31T07:03:26;9.30;99.90
55091;DHT22;40985;53.180;5.800;2023-03-31T07:05:57;9.40;99.90
55091;DHT22;40985;53.180;5.800;2023-03-31T07:08:23;9.30;99.90
55091;DHT22;40985;53.180;5.800;2023-03-31T07:10:53;9.30;99.90
55091;DHT22;40985;53.180;5.800;2023-03-31T07:13:20;9.20;99.90
55091;DHT22;40985;53.180;5.800;2023-03-31T07:15:47;9.20;99.90
55091;DHT22;40985;53.180;5.800;2023-03-31T07:18:13;9.40;99.90
55091;DHT22;40985;53.180;5.800;2023-03-31T07:20:40;9.20;99.90
55091;DHT22;40985;53.180;5.800;2023-03-31T07:23:06;9.20;99.90
55091;DHT22;40985;53.180;5.800;2023-03-31T07:25:34;9.30;99.90
55091;DHT22;40985;53.180;5.800;2023-03-31T07:28:00;9.20;99.90
55091;DHT22;40985;53.180;5.800;2023-03-31T07:30:28;9.20;99.90
55091;DHT22;40985;53.180;5.800;2023-03-31T07:32:54;9.30;99.90
55091;DHT22;40985;53.180;5.800;2023-03-31T07:35:20;9.20;99.90
55091;DHT22;40985;53.180;5.800;2023-03-31T07:37:48;9.20;99.90
55091;DHT22;40985;53.180;5.800;2023-03-31T07:40:20;9.20;99.90
55091;DHT22;40985;53.180;5.800;2023-03-31T07:42:47;9.20;99.90
55091;DHT22;40985;53.180;5.800;2023-03-31T07:45:15;9.30;99.90
55091;DHT22;40985;53.180;5.800;2023-03-31T07:47:41;9.20;99.90
55091;DHT22;40985;53.180;5.800;2023-03-31T07:50:08;9.40;99.90
55091;DHT22;40985;53.180;5.800;2023-03-31T07:52:33;9.30;99.90
55091;DHT22;40985;53.180;5.800;2023-03-31T07:54:59;9.20;99.90
55091;DHT22;40985;53.180;5.800;2023-03-31T07:57:27;9.40;99.90
55091;DHT22;40985;53.180;5.800;2023-03-31T07:59:53;9.30;99.90
55091;DHT22;40985;53.180;5.800;2023-03-31T08:02:18;9.30;99.90
55091;DHT22;40985;53.180;5.800;2023-03-31T08:04:44;9.40;99.90
55091;DHT22;40985;53.180;5.800;2023-03-31T08:07:12;9.30;99.90
55091;DHT22;40985;53.180;5.800;2023-03-31T08:09:38;9.40;99.90
55091;DHT22;40985;53.180;5.800;2023-03-31T08:12:04;9.50;99.90
55091;DHT22;40985;53.180;5.800;2023-03-31T08:14:30;9.60;99.90
55091;DHT22;40985;53.180;5.800;2023-03-31T08:16:56;9.50;99.90
55091;DHT22;40985;53.180;5.800;2023-03-31T08:19:24;9.60;99.90
55091;DHT22;40985;53.180;5.800;2023-03-31T08:21:50;9.60;99.90
55091;DHT22;40985;53.180;5.800;2023-03-31T08:24:17;9.70;99.90
55091;DHT22;40985;53.180;5.800;2023-03-31T08:26:43;9.80;99.90
55091;DHT22;40985;53.180;5.800;2023-03-31T08:29:09;9.80;99.90
55091;DHT22;40985;53.180;5.800;2023-03-31T08:31:35;9.80;99.90
55091;DHT22;40985;53.180;5.800;2023-03-31T08:34:00;9.70;99.90
55091;DHT22;40985;53.180;5.800;2023-03-31T08:36:27;9.80;99.90
55091;DHT22;40985;53.180;5.800;2023-03-31T08:38:53;9.90;99.90
55091;DHT22;40985;53.180;5.800;2023-03-31T08:41:23;10.10;99.90
55091;DHT22;40985;53.180;5.800;2023-03-31T08:43:56;10.10;99.90
55091;DHT22;40985;53.180;5.800;2023-03-31T08:46:22;10.00;99.90
55091;DHT22;40985;53.180;5.800;2023-03-31T08:48:55;10.30;99.90
55091;DHT22;40985;53.180;5.800;2023-03-31T08:51:30;10.20;99.90
55091;DHT22;40985;53.180;5.800;2023-03-31T08:54:03;10.30;99.90
55091;DHT22;40985;53.180;5.800;2023-03-31T08:56:35;10.30;99.90
55091;DHT22;40985;53.180;5.800;2023-03-31T08:59:05;10.50;99.90
55091;DHT22;40985;53.180;5.800;2023-03-31T09:15:50;10.90;99.90
55091;DHT22;40985;53.180;5.800;2023-03-31T09:18:40;10.80;99.90
55091;DHT22;40985;53.180;5.800;2023-03-31T09:21:50;10.80;99.90
55091;DHT22;40985;53.180;5.800;2023-03-31T09:24:43;11.00;99.90
55091;DHT22;40985;53.180;5.800;2023-03-31T09:27:19;11.00;99.90
55091;DHT22;40985;53.180;5.800;2023-03-31T09:29:58;11.10;99.90
55091;DHT22;40985;53.180;5.800;2023-03-31T09:32:27;11.00;99.90
55091;DHT22;40985;53.180;5.800;2023-03-31T09:35:19;11.10;99.90
55091;DHT22;40985;53.180;5.800;2023-03-31T09:37:48;11.10;99.90
55091;DHT22;40985;53.180;5.800;2023-03-31T09:40:23;11.10;99.90
55091;DHT22;40985;53.180;5.800;2023-03-31T09:43:00;11.20;99.90
55091;DHT22;40985;53.180;5.800;2023-03-31T09:45:28;11.30;99.90
55091;DHT22;40985;53.180;5.800;2023-03-31T09:48:17;11.20;99.90
55091;DHT22;40985;53.180;5.800;2023-03-31T09:50:54;11.20;99.90
55091;DHT22;40985;53.180;5.800;2023-03-31T09:53:39;11.10;99.90
55091;DHT22;40985;53.180;5.800;2023-03-31T09:56:08;11.10;99.90
55091;DHT22;40985;53.180;5.800;2023-03-31T09:58:43;11.00;99.90
55091;DHT22;40985;53.180;5.800;2023-03-31T10:01:13;10.90;99.90
55091;DHT22;40985;53.180;5.800;2023-03-31T10:03:59;10.80;99.90
55091;DHT22;40985;53.180;5.800;2023-03-31T10:06:33;10.70;99.90
55091;DHT22;40985;53.180;5.800;2023-03-31T10:09:09;10.70;99.90
55091;DHT22;40985;53.180;5.800;2023-03-31T10:11:36;10.60;99.90
55091;DHT22;40985;53.180;5.800;2023-03-31T10:14:10;10.60;99.90
55091;DHT22;40985;53.180;5.800;2023-03-31T10:16:48;10.50;99.90
55091;DHT22;40985;53.180;5.800;2023-03-31T10:21:48;10.80;99.90
55091;DHT22;40985;53.180;5.800;2023-03-31T10:24:20;11.00;99.90
55091;DHT22;40985;53.180;5.800;2023-03-31T10:26:48;11.20;99.90
55091;DHT22;40985;53.180;5.800;2023-03-31T10:29:19;11.30;99.90
55091;DHT22;40985;53.180;5.800;2023-03-31T10:31:50;11.40;99.90
55091;DHT22;40985;53.180;5.800;2023-03-31T10:34:16;11.70;99.90
55091;DHT22;40985;53.180;5.800;2023-03-31T10:36:47;11.80;99.90
55091;DHT22;40985;53.180;5.800;2023-03-31T10:39:17;11.90;99.90
55091;DHT22;40985;53.180;5.800;2023-03-31T10:41:51;11.90;99.90
55091;DHT22;40985;53.180;5.800;2023-03-31T10:44:38;11.90;99.90
55091;DHT22;40985;53.180;5.800;2023-03-31T10:47:19;11.90;99.90
55091;DHT22;40985;53.180;5.800;2023-03-31T10:49:49;12.00;99.90
55091;DHT22;40985;53.180;5.800;2023-03-31T10:52:21;12.00;99.90
55091;DHT22;40985;53.180;5.800;2023-03-31T10:54:58;12.00;99.90
55091;DHT22;40985;53.180;5.800;2023-03-31T11:05:52;12.50;99.90
55091;DHT22;40985;53.180;5.800;2023-03-31T11:08:38;12.70;99.90
55091;DHT22;40985;53.180;5.800;2023-03-31T11:20:07;12.80;99.90
55091;DHT22;40985;53.180;5.800;2023-03-31T11:28:41;12.90;99.90
55091;DHT22;40985;53.180;5.800;2023-03-31T11:30:42;12.70;99.90
55091;DHT22;40985;53.180;5.800;2023-03-31T11:33:54;12.50;99.90
55091;DHT22;40985;53.180;5.800;2023-03-31T11:42:08;12.10;99.90
55091;DHT22;40985;53.180;5.800;2023-03-31T11:44:45;11.90;99.90
55091;DHT22;40985;53.180;5.800;2023-03-31T11:47:18;11.90;99.90
55091;DHT22;40985;53.180;5.800;2023-03-31T11:50:10;11.90;99.90
55091;DHT22;40985;53.180;5.800;2023-03-31T11:52:40;11.80;99.90
55091;DHT22;40985;53.180;5.800;2023-03-31T11:55:18;11.70;99.90
55091;DHT22;40985;53.180;5.800;2023-03-31T11:58:06;11.90;99.90
55091;DHT22;40985;53.180;5.800;2023-03-31T12:00:45;11.80;99.90
55091;DHT22;40985;53.180;5.800;2023-03-31T12:03:28;11.90;99.90
55091;DHT22;40985;53.180;5.800;2023-03-31T12:06:14;11.80;99.90
55091;DHT22;40985;53.180;5.800;2023-03-31T12:12:01;12.00;99.90
55091;DHT22;40985;53.180;5.800;2023-03-31T12:17:23;11.70;99.90
55091;DHT22;40985;53.180;5.800;2023-03-31T12:20:04;11.70;99.90
55091;DHT22;40985;53.180;5.800;2023-03-31T12:22:44;11.80;99.90
55091;DHT22;40985;53.180;5.800;2023-03-31T12:25:20;11.80;99.90
55091;DHT22;40985;53.180;5.800;2023-03-31T12:27:52;11.70;99.90
55091;DHT22;40985;53.180;5.800;2023-03-31T12:30:35;11.70;99.90
55091;DHT22;40985;53.180;5.800;2023-03-31T12:51:22;11.80;99.90
55091;DHT22;40985;53.180;5.800;2023-03-31T12:56:25;11.70;99.90
55091;DHT22;40985;53.180;5.800;2023-03-31T12:59:17;11.80;99.90
55091;DHT22;40985;53.180;5.800;2023-03-31T13:04:41;11.70;99.90
55091;DHT22;40985;53.180;5.800;2023-03-31T13:07:39;11.70;99.90
55091;DHT22;40985;53.180;5.800;2023-03-31T13:13:05;11.80;99.90
55091;DHT22;40985;53.180;5.800;2023-03-31T13:15:51;12.00;99.90
55091;DHT22;40985;53.180;5.800;2023-03-31T13:18:20;12.00;99.90
55091;DHT22;40985;53.180;5.800;2023-03-31T13:20:59;11.90;99.90
55091;DHT22;40985;53.180;5.800;2023-03-31T13:23:34;12.20;99.90
55091;DHT22;40985;53.180;5.800;2023-03-31T13:26:02;12.30;99.90
55091;DHT22;40985;53.180;5.800;2023-03-31T13:28:42;12.40;99.90
55091;DHT22;40985;53.180;5.800;2023-03-31T13:31:13;12.30;99.90
55091;DHT22;40985;53.180;5.800;2023-03-31T13:33:58;12.40;99.90
55091;DHT22;40985;53.180;5.800;2023-03-31T13:36:47;12.50;99.90
55091;DHT22;40985;53.180;5.800;2023-03-31T13:39:35;12.50;99.90
55091;DHT22;40985;53.180;5.800;2023-03-31T13:51:19;12.60;99.90
55091;DHT22;40985;53.180;5.800;2023-03-31T13:56:41;12.60;99.90
55091;DHT22;40985;53.180;5.800;2023-03-31T14:05:22;12.70;99.90
55091;DHT22;40985;53.180;5.800;2023-03-31T14:07:46;12.70;99.90
55091;DHT22;40985;53.180;5.800;2023-03-31T14:10:30;12.80;99.90
55091;DHT22;40985;53.180;5.800;2023-03-31T14:13:12;12.60;99.90
55091;DHT22;40985;53.180;5.800;2023-03-31T14:15:46;12.70;99.90
55091;DHT22;40985;53.180;5.800;2023-03-31T14:18:27;12.60;99.90
55091;DHT22;40985;53.180;5.800;2023-03-31T14:32:06;12.50;99.90
55091;DHT22;40985;53.180;5.800;2023-03-31T14:37:44;12.10;99.90
55091;DHT22;40985;53.180;5.800;2023-03-31T14:40:14;12.10;99.90
55091;DHT22;40985;53.180;5.800;2023-03-31T14:42:41;12.00;99.90
55091;DHT22;40985;53.180;5.800;2023-03-31T14:45:30;11.90;99.90
55091;DHT22;40985;53.180;5.800;2023-03-31T14:48:10;11.90;99.90
55091;DHT22;40985;53.180;5.800;2023-03-31T14:50:41;11.90;99.90
55091;DHT22;40985;53.180;5.800;2023-03-31T14:53:16;11.90;99.90
55091;DHT22;40985;53.180;5.800;2023-03-31T14:55:44;12.00;99.90
55091;DHT22;40985;53.180;5.800;2023-03-31T14:58:21;12.00;99.90
55091;DHT22;40985;53.180;5.800;2023-03-31T15:00:49;12.00;99.90
55091;DHT22;40985;53.180;5.800;2023-03-31T15:03:16;11.90;99.90
55091;DHT22;40985;53.180;5.800;2023-03-31T15:05:42;12.00;99.90
55091;DHT22;40985;53.180;5.800;2023-03-31T15:08:13;11.90;99.90
55091;DHT22;40985;53.180;5.800;2023-03-31T15:10:43;11.80;99.90
55091;DHT22;40985;53.180;5.800;2023-03-31T15:13:33;11.80;99.90
55091;DHT22;40985;53.180;5.800;2023-03-31T15:16:28;11.80;99.90
55091;DHT22;40985;53.180;5.800;2023-03-31T15:18:55;11.60;99.90
55091;DHT22;40985;53.180;5.800;2023-03-31T15:21:24;11.50;99.90
55091;DHT22;40985;53.180;5.800;2023-03-31T15:23:51;11.50;99.90
55091;DHT22;40985;53.180;5.800;2023-03-31T15:26:22;11.50;99.90
55091;DHT22;40985;53.180;5.800;2023-03-31T15:29:00;11.60;99.90
55091;DHT22;40985;53.180;5.800;2023-03-31T15:31:28;11.50;99.90
55091;DHT22;40985;53.180;5.800;2023-03-31T15:33:55;11.40;99.90
55091;DHT22;40985;53.180;5.800;2023-03-31T15:36:21;11.40;99.90
55091;DHT22;40985;53.180;5.800;2023-03-31T15:38:56;11.40;99.90
55091;DHT22;40985;53.180;5.800;2023-03-31T15:41:23;11.40;99.90
55091;DHT22;40985;53.180;5.800;2023-03-31T15:44:05;11.50;99.90
55091;DHT22;40985;53.180;5.800;2023-03-31T15:49:02;11.60;99.90
55091;DHT22;40985;53.180;5.800;2023-03-31T15:51:35;11.60;99.90
55091;DHT22;40985;53.180;5.800;2023-03-31T15:54:02;11.70;99.90
55091;DHT22;40985;53.180;5.800;2023-03-31T15:56:33;11.80;99.90
55091;DHT22;40985;53.180;5.800;2023-03-31T15:59:03;11.70;99.90
55091;DHT22;40985;53.180;5.800;2023-03-31T16:01:34;11.90;99.90
55091;DHT22;40985;53.180;5.800;2023-03-31T16:04:07;11.90;99.90
55091;DHT22;40985;53.180;5.800;2023-03-31T16:06:36;11.90;99.90
55091;DHT22;40985;53.180;5.800;2023-03-31T16:09:08;11.90;99.90
55091;DHT22;40985;53.180;5.800;2023-03-31T16:14:26;11.80;99.90
55091;DHT22;40985;53.180;5.800;2023-03-31T16:17:03;11.80;99.90
55091;DHT22;40985;53.180;5.800;2023-03-31T16:19:40;11.80;99.90
55091;DHT22;40985;53.180;5.800;2023-03-31T16:22:13;11.80;99.90
55091;DHT22;40985;53.180;5.800;2023-03-31T16:24:41;11.80;99.90
55091;DHT22;40985;53.180;5.800;2023-03-31T16:27:07;11.70;99.90
55091;DHT22;40985;53.180;5.800;2023-03-31T16:29:35;11.80;99.90
55091;DHT22;40985;53.180;5.800;2023-03-31T16:32:11;11.80;99.90
55091;DHT22;40985;53.180;5.800;2023-03-31T16:37:20;11.80;99.90
55091;DHT22;40985;53.180;5.800;2023-03-31T16:39:46;11.80;99.90
55091;DHT22;40985;53.180;5.800;2023-03-31T16:42:11;11.80;99.90
55091;DHT22;40985;53.180;5.800;2023-03-31T16:44:37;11.90;99.90
55091;DHT22;40985;53.180;5.800;2023-03-31T16:47:02;11.90;99.90
55091;DHT22;40985;53.180;5.800;2023-03-31T16:49:29;11.80;99.90
55091;DHT22;40985;53.180;5.800;2023-03-31T16:51:55;11.90;99.90
55091;DHT22;40985;53.180;5.800;2023-03-31T16:54:20;11.80;99.90
55091;DHT22;40985;53.180;5.800;2023-03-31T16:56:46;11.80;99.90
55091;DHT22;40985;53.180;5.800;2023-03-31T16:59:12;11.70;99.90
55091;DHT22;40985;53.180;5.800;2023-03-31T17:01:38;11.60;99.90
55091;DHT22;40985;53.180;5.800;2023-03-31T17:04:04;11.60;99.90
55091;DHT22;40985;53.180;5.800;2023-03-31T17:06:29;11.60;99.90
55091;DHT22;40985;53.180;5.800;2023-03-31T17:08:55;11.60;99.90
55091;DHT22;40985;53.180;5.800;2023-03-31T17:11:21;11.60;99.90
55091;DHT22;40985;53.180;5.800;2023-03-31T17:13:47;11.70;99.90
55091;DHT22;40985;53.180;5.800;2023-03-31T17:16:13;11.60;99.90
55091;DHT22;40985;53.180;5.800;2023-03-31T17:18:40;11.60;99.90
55091;DHT22;40985;53.180;5.800;2023-03-31T17:21:10;11.50;99.90
55091;DHT22;40985;53.180;5.800;2023-03-31T17:23:37;11.50;99.90
55091;DHT22;40985;53.180;5.800;2023-03-31T17:26:04;11.50;99.90
55091;DHT22;40985;53.180;5.800;2023-03-31T17:28:32;11.40;99.90
55091;DHT22;40985;53.180;5.800;2023-03-31T17:30:58;11.30;99.90
55091;DHT22;40985;53.180;5.800;2023-03-31T17:33:24;11.20;99.90
55091;DHT22;40985;53.180;5.800;2023-03-31T17:35:56;11.10;99.90
55091;DHT22;40985;53.180;5.800;2023-03-31T17:38:24;11.10;99.90
55091;DHT22;40985;53.180;5.800;2023-03-31T17:40:49;11.00;99.90
55091;DHT22;40985;53.180;5.800;2023-03-31T17:43:15;10.90;99.90
55091;DHT22;40985;53.180;5.800;2023-03-31T17:45:41;10.90;99.90
55091;DHT22;40985;53.180;5.800;2023-03-31T17:48:07;10.80;99.90
55091;DHT22;40985;53.180;5.800;2023-03-31T17:50:37;10.80;99.90
55091;DHT22;40985;53.180;5.800;2023-03-31T17:53:03;10.80;99.90
55091;DHT22;40985;53.180;5.800;2023-03-31T17:55:36;10.70;99.90
55091;DHT22;40985;53.180;5.800;2023-03-31T17:58:03;10.70;99.90
55091;DHT22;40985;53.180;5.800;2023-03-31T18:00:29;10.70;99.90
55091;DHT22;40985;53.180;5.800;2023-03-31T18:02:55;10.70;99.90
55091;DHT22;40985;53.180;5.800;2023-03-31T18:05:21;10.60;99.90
55091;DHT22;40985;53.180;5.800;2023-03-31T18:07:46;10.60;99.90
55091;DHT22;40985;53.180;5.800;2023-03-31T18:10:12;10.60;99.90
55091;DHT22;40985;53.180;5.800;2023-03-31T18:12:38;10.50;99.90
55091;DHT22;40985;53.180;5.800;2023-03-31T18:15:05;10.50;99.90
55091;DHT22;40985;53.180;5.800;2023-03-31T18:17:32;10.50;99.90
55091;DHT22;40985;53.180;5.800;2023-03-31T18:19:58;10.50;99.90
55091;DHT22;40985;53.180;5.800;2023-03-31T18:22:24;10.50;99.90
55091;DHT22;40985;53.180;5.800;2023-03-31T18:24:50;10.40;99.90
55091;DHT22;40985;53.180;5.800;2023-03-31T18:27:15;10.40;99.90
55091;DHT22;40985;53.180;5.800;2023-03-31T18:29:41;10.40;99.90
55091;DHT22;40985;53.180;5.800;2023-03-31T18:32:07;10.30;99.90
55091;DHT22;40985;53.180;5.800;2023-03-31T18:34:37;10.30;99.90
55091;DHT22;40985;53.180;5.800;2023-03-31T18:37:02;10.20;99.90
55091;DHT22;40985;53.180;5.800;2023-03-31T18:39:29;10.20;99.90
55091;DHT22;40985;53.180;5.800;2023-03-31T18:41:57;10.20;99.90